Time;durP1;ratioP1;P1;durP2;ratioP2;P2;SDS_P1;SDS_P2;PMS_P1;PMS_P2;Temp;Humidity;BMP_temperature;BMP_pressure;BME280_temperature;BME280_humidity;BME280_pressure;Samples;Min_cycle;Max_cycle;Signal;HPM_P1;HPM_P2
2023/12/17 00:02:13;;;;;;;17.47;12.50;;;8.90;99.90;;;;;;5063411;23;20233;-76
2023/12/17 00:04:40;;;;;;;20.67;13.10;;;8.90;99.90;;;;;;5033023;28;20206;-76
2023/12/17 00:07:09;;;;;;;23.07;14.07;;;8.80;99.90;;;;;;5034294;28;20206;-76
2023/12/17 00:09:36;;;;;;;22.60;13.17;;;8.80;99.90;;;;;;5025192;28;20214;-76
2023/12/17 00:12:04;;;;;;;23.27;14.10;;;8.90;99.90;;;;;;5035087;28;20218;-75
2023/12/17 00:14:32;;;;;;;22.00;14.13;;;8.90;99.90;;;;;;5018529;28;20207;-76
2023/12/17 00:16:59;;;;;;;22.67;15.00;;;8.90;99.90;;;;;;5032990;28;20199;-75
2023/12/17 00:19:26;;;;;;;21.87;13.77;;;8.80;99.90;;;;;;5030851;28;20214;-76
2023/12/17 00:21:54;;;;;;;19.57;13.17;;;8.80;99.90;;;;;;5028370;28;20222;-75
2023/12/17 00:24:22;;;;;;;19.27;13.37;;;8.80;99.90;;;;;;5018951;28;20199;-76
2023/12/17 00:26:50;;;;;;;21.93;14.83;;;8.80;99.90;;;;;;5031352;28;20195;-75
2023/12/17 00:29:17;;;;;;;20.90;14.30;;;8.80;99.90;;;;;;5022353;28;20207;-76
2023/12/17 00:31:45;;;;;;;23.43;14.17;;;8.80;99.90;;;;;;5027236;28;20222;-78
2023/12/17 00:34:12;;;;;;;21.20;14.30;;;8.80;99.90;;;;;;5019236;28;20202;-75
2023/12/17 00:36:39;;;;;;;20.37;14.43;;;8.90;99.90;;;;;;5026210;28;20195;-76
2023/12/17 00:39:07;;;;;;;24.03;14.27;;;8.90;99.90;;;;;;5030584;28;20562;-76
2023/12/17 00:41:36;;;;;;;19.87;13.80;;;8.80;99.90;;;;;;5014061;28;20230;-75
2023/12/17 00:44:03;;;;;;;21.70;13.67;;;8.80;99.90;;;;;;5018973;28;20206;-75
2023/12/17 00:46:30;;;;;;;22.27;13.60;;;8.80;99.90;;;;;;5026179;28;20207;-75
2023/12/17 00:48:58;;;;;;;20.20;13.87;;;8.80;99.90;;;;;;5013734;28;20200;-76
2023/12/17 00:51:25;;;;;;;17.97;12.73;;;8.80;99.90;;;;;;5017831;28;20226;-76
2023/12/17 00:53:53;;;;;;;18.37;13.17;;;8.80;99.90;;;;;;5032571;28;20199;-76
2023/12/17 00:56:20;;;;;;;19.10;12.57;;;8.90;99.90;;;;;;5028411;28;20203;-75
2023/12/17 00:58:49;;;;;;;20.23;12.80;;;8.80;99.90;;;;;;5031912;28;20290;-75
2023/12/17 01:01:16;;;;;;;20.07;13.93;;;8.80;99.90;;;;;;5029452;28;20246;-76
2023/12/17 01:03:43;;;;;;;23.33;14.40;;;8.80;99.90;;;;;;5013504;28;20291;-76
2023/12/17 01:06:11;;;;;;;18.27;12.93;;;8.90;99.90;;;;;;5030063;28;20207;-75
2023/12/17 01:08:38;;;;;;;21.13;13.70;;;8.90;99.90;;;;;;5015005;28;20211;-75
2023/12/17 01:11:06;;;;;;;24.73;15.10;;;8.90;99.90;;;;;;5012668;28;20310;-76
2023/12/17 01:13:33;;;;;;;19.67;13.30;;;8.90;99.90;;;;;;5032717;28;20210;-76
2023/12/17 01:16:02;;;;;;;24.33;15.13;;;8.80;99.90;;;;;;5025401;28;20196;-76
2023/12/17 01:18:30;;;;;;;21.90;14.07;;;8.80;99.90;;;;;;5020788;28;20210;-75
2023/12/17 01:21:00;;;;;;;23.73;14.97;;;8.90;99.90;;;;;;5030118;28;20230;-75
2023/12/17 01:23:28;;;;;;;19.40;14.60;;;8.80;99.90;;;;;;5049287;28;20203;-78
2023/12/17 01:25:55;;;;;;;24.43;16.80;;;8.90;99.90;;;;;;5025428;28;20207;-76
2023/12/17 01:28:22;;;;;;;26.20;15.50;;;8.90;99.90;;;;;;5029087;28;20206;-76
2023/12/17 01:30:50;;;;;;;18.90;13.70;;;8.80;99.90;;;;;;5027942;28;20228;-77
2023/12/17 01:33:19;;;;;;;19.53;14.03;;;8.90;99.90;;;;;;5032406;28;20195;-76
2023/12/17 01:35:46;;;;;;;22.67;14.70;;;8.90;99.90;;;;;;5022049;28;20211;-76
2023/12/17 01:38:14;;;;;;;25.87;15.33;;;8.90;99.90;;;;;;5028748;28;20231;-76
2023/12/17 01:40:41;;;;;;;19.57;14.53;;;8.90;99.90;;;;;;5018010;28;20219;-76
2023/12/17 01:43:09;;;;;;;20.33;13.60;;;8.90;99.90;;;;;;5031185;28;20244;-75
2023/12/17 01:45:36;;;;;;;19.80;15.13;;;8.90;99.90;;;;;;5032144;28;20206;-76
2023/12/17 01:48:04;;;;;;;21.93;13.60;;;8.90;99.90;;;;;;5024576;28;20199;-76
2023/12/17 01:50:33;;;;;;;20.30;13.50;;;8.90;99.90;;;;;;5014049;28;20231;-75
2023/12/17 01:53:01;;;;;;;21.40;15.90;;;8.90;99.90;;;;;;5015576;28;20207;-76
2023/12/17 01:55:29;;;;;;;19.60;15.10;;;8.90;99.90;;;;;;5012343;28;20200;-75
2023/12/17 01:57:57;;;;;;;20.37;13.90;;;8.90;99.90;;;;;;5013668;28;20196;-76
2023/12/17 02:00:26;;;;;;;23.23;15.80;;;8.90;99.90;;;;;;5027134;28;20200;-75
2023/12/17 02:02:53;;;;;;;24.27;14.57;;;8.90;99.90;;;;;;5032367;28;20223;-76
2023/12/17 02:05:21;;;;;;;20.83;14.20;;;8.90;99.90;;;;;;5025918;28;20233;-76
2023/12/17 02:07:49;;;;;;;20.30;13.97;;;8.90;99.90;;;;;;5030220;28;20715;-75
2023/12/17 02:10:17;;;;;;;19.10;13.77;;;8.90;99.90;;;;;;5016756;28;20211;-76
2023/12/17 02:12:44;;;;;;;20.30;14.73;;;8.90;99.90;;;;;;5027756;28;20204;-76
2023/12/17 02:15:12;;;;;;;20.67;13.13;;;8.90;99.90;;;;;;5024145;28;20218;-76
2023/12/17 02:17:39;;;;;;;19.40;14.07;;;8.90;99.90;;;;;;5011491;28;20212;-76
2023/12/17 02:20:08;;;;;;;17.63;12.93;;;8.90;99.90;;;;;;5023835;28;20206;-77
2023/12/17 02:22:37;;;;;;;17.80;13.40;;;8.90;99.90;;;;;;5033027;28;20223;-76
2023/12/17 02:25:07;;;;;;;17.73;12.97;;;8.90;99.90;;;;;;5023692;28;20199;-76
2023/12/17 02:27:34;;;;;;;17.27;12.77;;;8.90;99.90;;;;;;5011929;28;20680;-75
2023/12/17 02:30:02;;;;;;;16.77;13.27;;;8.80;99.90;;;;;;5023009;28;20210;-76
2023/12/17 02:32:30;;;;;;;18.73;13.57;;;8.90;99.90;;;;;;5031391;28;20222;-76
2023/12/17 02:34:57;;;;;;;17.93;12.73;;;8.80;99.90;;;;;;5031235;28;20203;-76
2023/12/17 02:37:24;;;;;;;20.63;13.43;;;8.80;99.90;;;;;;5030262;28;20198;-76
2023/12/17 02:39:52;;;;;;;19.57;13.47;;;8.90;99.90;;;;;;5028745;28;20203;-76
2023/12/17 02:42:21;;;;;;;17.53;12.80;;;8.90;99.90;;;;;;5027223;28;20216;-77
2023/12/17 02:44:49;;;;;;;16.67;12.83;;;8.90;99.90;;;;;;5029228;28;20203;-76
2023/12/17 02:51:05;;;;;;;19.63;12.67;;;8.90;99.90;;;;;;5024786;28;20198;-76
2023/12/17 02:53:32;;;;;;;16.77;12.60;;;8.80;99.90;;;;;;5019068;28;20222;-75
2023/12/17 02:56:00;;;;;;;17.67;12.97;;;8.80;99.90;;;;;;5030994;28;20211;-77
2023/12/17 02:58:29;;;;;;;21.53;12.73;;;8.80;99.90;;;;;;5020853;28;20276;-76
2023/12/17 03:00:57;;;;;;;18.70;12.87;;;8.80;99.90;;;;;;5014333;28;20689;-75
2023/12/17 03:03:24;;;;;;;21.67;13.37;;;8.90;99.90;;;;;;5017255;28;20595;-76
2023/12/17 03:05:51;;;;;;;16.03;11.80;;;8.80;99.90;;;;;;5021624;28;20227;-76
2023/12/17 03:08:19;;;;;;;16.57;12.70;;;8.80;99.90;;;;;;5026441;28;20199;-75
2023/12/17 03:10:46;;;;;;;16.53;12.03;;;8.80;99.90;;;;;;5028572;28;20228;-75
2023/12/17 03:13:13;;;;;;;16.80;11.53;;;8.80;99.90;;;;;;5027410;28;20204;-75
2023/12/17 03:15:42;;;;;;;14.90;11.03;;;8.80;99.90;;;;;;5025157;28;20691;-75
2023/12/17 03:18:11;;;;;;;18.33;12.40;;;8.80;99.90;;;;;;5024004;28;20206;-76
2023/12/17 03:20:39;;;;;;;16.40;11.20;;;8.80;99.90;;;;;;5029705;28;20218;-76
2023/12/17 03:23:07;;;;;;;18.70;11.93;;;8.80;99.90;;;;;;5029563;28;20211;-77
2023/12/17 03:25:34;;;;;;;15.23;11.37;;;8.80;99.90;;;;;;5021417;28;20208;-77
2023/12/17 03:28:02;;;;;;;16.30;11.63;;;8.80;99.90;;;;;;5019466;28;20199;-76
2023/12/17 03:30:29;;;;;;;18.27;11.63;;;8.80;99.90;;;;;;5026851;28;20203;-75
2023/12/17 03:32:58;;;;;;;18.63;12.47;;;8.80;99.90;;;;;;5035203;28;20195;-76
2023/12/17 03:35:25;;;;;;;17.17;11.70;;;8.80;99.90;;;;;;5034849;28;20203;-76
2023/12/17 03:37:52;;;;;;;14.57;11.60;;;8.80;99.90;;;;;;5028672;28;20204;-76
2023/12/17 03:40:20;;;;;;;21.73;11.67;;;8.80;99.90;;;;;;5043376;28;20211;-76
2023/12/17 03:42:47;;;;;;;16.60;11.07;;;8.70;99.90;;;;;;5029403;28;20218;-76
2023/12/17 03:45:15;;;;;;;17.23;12.57;;;8.80;99.90;;;;;;5019395;28;20194;-76
2023/12/17 03:47:47;;;;;;;18.27;12.83;;;8.70;99.90;;;;;;5030860;28;20203;-75
2023/12/17 03:50:16;;;;;;;19.43;12.60;;;8.70;99.90;;;;;;5017966;28;20566;-77
2023/12/17 03:52:45;;;;;;;18.60;13.03;;;8.70;99.90;;;;;;5025119;28;20668;-76
2023/12/17 03:55:13;;;;;;;17.13;12.53;;;8.70;99.90;;;;;;5028011;28;20195;-76
2023/12/17 03:57:41;;;;;;;19.17;13.77;;;8.80;99.90;;;;;;5031694;28;20191;-77
2023/12/17 04:00:10;;;;;;;18.53;13.17;;;8.80;99.90;;;;;;5028187;28;20212;-76
2023/12/17 04:02:37;;;;;;;18.17;13.23;;;8.70;99.90;;;;;;5023840;28;20580;-75
2023/12/17 04:05:06;;;;;;;22.00;14.00;;;8.70;99.90;;;;;;5033708;28;20696;-76
2023/12/17 04:07:35;;;;;;;18.93;14.03;;;8.70;99.90;;;;;;5028045;28;20199;-76
2023/12/17 04:10:03;;;;;;;20.50;13.70;;;8.70;99.90;;;;;;5030138;28;20211;-76
2023/12/17 04:12:31;;;;;;;18.80;13.93;;;8.70;99.90;;;;;;5022621;28;20219;-75
2023/12/17 04:14:58;;;;;;;20.73;14.23;;;8.70;99.90;;;;;;5030751;28;20199;-76
2023/12/17 04:17:26;;;;;;;21.23;13.17;;;8.70;99.90;;;;;;5015943;28;20195;-76
2023/12/17 04:23:42;;;;;;;18.83;14.07;;;8.70;99.90;;;;;;5037928;28;20210;-76
2023/12/17 04:26:11;;;;;;;22.43;14.17;;;8.70;99.90;;;;;;5016637;28;20206;-77
2023/12/17 04:28:39;;;;;;;18.60;13.83;;;8.70;99.90;;;;;;5022118;28;20210;-76
2023/12/17 04:31:07;;;;;;;18.10;14.00;;;8.70;99.90;;;;;;5028960;28;20227;-76
2023/12/17 04:33:34;;;;;;;20.10;13.87;;;8.70;99.90;;;;;;5032088;28;20534;-75
2023/12/17 04:36:01;;;;;;;19.83;14.07;;;8.70;99.90;;;;;;5031016;28;20211;-77
2023/12/17 04:38:29;;;;;;;18.73;14.10;;;8.70;99.90;;;;;;5031110;28;20206;-76
2023/12/17 04:40:59;;;;;;;20.27;13.23;;;8.70;99.90;;;;;;5014386;28;20228;-76
2023/12/17 04:43:28;;;;;;;19.50;14.00;;;8.70;99.90;;;;;;5018916;28;20724;-76
2023/12/17 04:45:56;;;;;;;20.30;13.37;;;8.70;99.90;;;;;;5015106;28;20200;-77
2023/12/17 04:48:24;;;;;;;21.53;13.97;;;8.70;99.90;;;;;;5026706;28;20574;-77
2023/12/17 04:50:51;;;;;;;20.87;13.97;;;8.70;99.90;;;;;;5023721;28;20223;-75
2023/12/17 04:53:18;;;;;;;20.40;13.27;;;8.70;99.90;;;;;;5033094;28;20211;-76
2023/12/17 04:55:46;;;;;;;18.10;13.13;;;8.60;99.90;;;;;;5026021;28;20219;-77
2023/12/17 04:58:15;;;;;;;18.27;12.87;;;8.60;99.90;;;;;;5025019;28;20696;-76
2023/12/17 05:00:42;;;;;;;21.53;13.27;;;8.60;99.90;;;;;;5033977;28;20218;-76
2023/12/17 05:03:10;;;;;;;18.43;12.33;;;8.60;99.90;;;;;;5032720;28;20222;-76
2023/12/17 05:05:37;;;;;;;16.50;12.70;;;8.60;99.90;;;;;;5032999;28;20214;-75
2023/12/17 05:08:05;;;;;;;20.17;14.63;;;8.60;99.90;;;;;;5032994;28;20191;-76
2023/12/17 05:10:33;;;;;;;18.93;14.03;;;8.60;99.90;;;;;;5033918;28;20207;-76
2023/12/17 05:13:00;;;;;;;17.57;12.93;;;8.60;99.90;;;;;;5032478;28;20210;-76
2023/12/17 05:15:29;;;;;;;18.73;12.90;;;8.60;99.90;;;;;;5032914;28;20210;-76
2023/12/17 05:17:56;;;;;;;17.33;12.43;;;8.60;99.90;;;;;;5032864;28;20201;-78
2023/12/17 05:20:24;;;;;;;17.83;13.90;;;8.60;99.90;;;;;;5033613;28;20198;-76
2023/12/17 05:22:51;;;;;;;17.40;12.90;;;8.50;99.90;;;;;;5017906;28;20214;-76
2023/12/17 05:25:19;;;;;;;17.23;12.63;;;8.50;99.90;;;;;;5012654;28;20207;-77
2023/12/17 05:27:46;;;;;;;19.30;12.77;;;8.50;99.90;;;;;;5027039;28;20195;-76
2023/12/17 05:30:14;;;;;;;19.27;12.87;;;8.50;99.90;;;;;;5032090;28;20199;-76
2023/12/17 05:32:43;;;;;;;17.97;13.07;;;8.50;99.90;;;;;;5032727;28;20195;-76
2023/12/17 05:35:11;;;;;;;18.23;13.17;;;8.50;99.90;;;;;;5032619;28;20545;-75
2023/12/17 05:37:38;;;;;;;18.23;14.13;;;8.50;99.90;;;;;;5032582;28;20191;-76
2023/12/17 05:40:08;;;;;;;18.13;13.10;;;8.50;99.90;;;;;;5031930;28;20206;-76
2023/12/17 05:42:36;;;;;;;21.37;13.63;;;8.50;99.90;;;;;;5032593;28;20226;-76
2023/12/17 05:45:04;;;;;;;18.97;12.90;;;8.50;99.90;;;;;;5015551;28;20216;-76
2023/12/17 05:47:32;;;;;;;19.00;13.30;;;8.50;99.90;;;;;;5017892;28;20192;-76
2023/12/17 05:50:01;;;;;;;18.00;12.27;;;8.40;99.90;;;;;;5013737;28;20203;-77
2023/12/17 05:52:29;;;;;;;17.77;12.37;;;8.50;99.90;;;;;;5013721;28;20222;-76
2023/12/17 05:54:56;;;;;;;17.83;13.27;;;8.50;99.90;;;;;;5031560;28;20191;-76
2023/12/17 05:57:24;;;;;;;18.57;13.90;;;8.50;99.90;;;;;;5031947;28;20199;-76
2023/12/17 05:59:51;;;;;;;17.60;12.20;;;8.40;99.90;;;;;;5016384;28;20229;-78
2023/12/17 06:02:19;;;;;;;18.77;13.17;;;8.50;99.90;;;;;;5029518;23;20210;-73
2023/12/17 06:04:46;;;;;;;17.93;12.60;;;8.40;99.90;;;;;;5031909;28;20214;-72
2023/12/17 06:07:17;;;;;;;19.77;13.23;;;8.40;99.90;;;;;;5048470;28;20210;-73
2023/12/17 06:09:44;;;;;;;17.60;12.73;;;8.40;99.90;;;;;;5046013;28;20569;-72
2023/12/17 06:12:11;;;;;;;20.70;12.77;;;8.40;99.90;;;;;;5031950;28;20214;-72
2023/12/17 06:14:40;;;;;;;16.23;11.77;;;8.40;99.90;;;;;;5030933;28;20202;-72
2023/12/17 06:17:08;;;;;;;18.17;12.10;;;8.40;99.90;;;;;;5031737;28;20214;-72
2023/12/17 06:19:37;;;;;;;17.70;12.70;;;8.40;99.90;;;;;;5031310;28;20210;-73
2023/12/17 06:22:05;;;;;;;19.80;12.10;;;8.40;99.90;;;;;;5030305;28;20554;-72
2023/12/17 06:24:35;;;;;;;16.70;12.30;;;8.40;99.90;;;;;;5030386;28;20242;-73
2023/12/17 06:27:03;;;;;;;16.73;12.57;;;8.40;99.90;;;;;;5030038;28;20203;-72
2023/12/17 06:29:30;;;;;;;16.13;12.17;;;8.40;99.90;;;;;;5030789;28;20203;-73
2023/12/17 06:31:58;;;;;;;18.03;11.47;;;8.40;99.90;;;;;;5029557;28;20553;-73
2023/12/17 06:34:26;;;;;;;18.83;12.60;;;8.30;99.90;;;;;;5023528;28;20204;-73
2023/12/17 06:36:53;;;;;;;20.63;12.47;;;8.40;99.90;;;;;;5028445;28;20206;-72
2023/12/17 06:39:20;;;;;;;15.67;11.73;;;8.40;99.90;;;;;;5020049;28;20654;-73
2023/12/17 06:41:49;;;;;;;16.23;11.17;;;8.40;99.90;;;;;;5030390;28;20199;-73
2023/12/17 06:44:16;;;;;;;15.70;11.87;;;8.40;99.90;;;;;;5011814;28;20707;-73
2023/12/17 06:46:44;;;;;;;18.00;11.30;;;8.40;99.90;;;;;;5012831;28;20184;-73
2023/12/17 06:49:11;;;;;;;16.30;10.60;;;8.40;99.90;;;;;;5029095;28;20195;-73
2023/12/17 06:51:40;;;;;;;16.87;11.33;;;8.30;99.90;;;;;;5030533;28;20569;-73
2023/12/17 06:54:07;;;;;;;16.30;11.57;;;8.30;99.90;;;;;;5030145;28;20218;-72
2023/12/17 06:56:35;;;;;;;14.83;11.30;;;8.30;99.90;;;;;;5030342;28;20207;-72
2023/12/17 06:59:03;;;;;;;16.43;12.00;;;8.30;99.90;;;;;;5020852;28;20215;-72
2023/12/17 07:01:31;;;;;;;15.90;11.33;;;8.40;99.90;;;;;;5014413;28;20210;-73
2023/12/17 07:03:58;;;;;;;16.53;11.83;;;8.30;99.90;;;;;;5028525;28;20254;-72
2023/12/17 07:06:26;;;;;;;15.20;11.03;;;8.30;99.90;;;;;;5030957;28;20214;-73
2023/12/17 07:08:53;;;;;;;19.23;13.47;;;8.30;99.90;;;;;;5031209;28;20231;-73
2023/12/17 07:11:20;;;;;;;19.60;13.57;;;8.20;99.90;;;;;;5027570;28;20204;-73
2023/12/17 07:13:49;;;;;;;17.50;11.40;;;8.30;99.90;;;;;;5025966;28;20227;-72
2023/12/17 07:16:24;;;;;;;15.30;11.63;;;8.30;99.90;;;;;;5016448;28;20217;-73
2023/12/17 07:18:52;;;;;;;18.63;11.67;;;8.30;99.90;;;;;;5030722;28;20555;-73
2023/12/17 07:21:19;;;;;;;18.47;12.67;;;8.30;99.90;;;;;;5026172;28;20207;-72
2023/12/17 07:23:47;;;;;;;17.33;12.33;;;8.30;99.90;;;;;;5016142;28;20222;-74
2023/12/17 07:26:15;;;;;;;14.57;11.27;;;8.30;99.90;;;;;;5026914;28;20704;-75
2023/12/17 07:28:42;;;;;;;18.27;11.50;;;8.20;99.90;;;;;;5024749;28;20906;-76
2023/12/17 07:31:09;;;;;;;16.40;12.03;;;8.30;99.90;;;;;;5023684;28;20199;-75
2023/12/17 07:33:38;;;;;;;16.77;11.83;;;8.20;99.90;;;;;;5038833;28;20222;-75
2023/12/17 07:36:11;;;;;;;17.17;11.93;;;8.10;99.90;;;;;;5040488;28;20195;-75
2023/12/17 07:38:38;;;;;;;19.93;11.50;;;8.20;99.90;;;;;;5017046;28;20206;-75
2023/12/17 07:41:06;;;;;;;18.80;13.17;;;8.10;99.90;;;;;;5023319;28;20199;-75
2023/12/17 07:43:34;;;;;;;15.30;12.10;;;8.20;99.90;;;;;;5019989;28;20219;-76
2023/12/17 07:46:01;;;;;;;14.90;11.53;;;8.20;99.90;;;;;;5018992;28;20255;-75
2023/12/17 07:48:29;;;;;;;16.73;12.20;;;8.20;99.90;;;;;;5032267;28;20198;-76
2023/12/17 07:50:58;;;;;;;15.37;11.37;;;8.20;99.90;;;;;;5037031;28;20199;-75
2023/12/17 07:53:25;;;;;;;16.00;11.47;;;8.20;99.90;;;;;;5031496;28;20545;-75
2023/12/17 07:55:57;;;;;;;17.77;11.60;;;8.20;99.90;;;;;;5028974;28;20207;-75
2023/12/17 07:58:35;;;;;;;16.27;11.63;;;8.20;99.90;;;;;;5028319;28;20207;-75
2023/12/17 08:01:02;;;;;;;17.50;11.33;;;8.20;99.90;;;;;;5033350;28;20203;-75
2023/12/17 08:03:30;;;;;;;13.93;10.03;;;8.20;99.90;;;;;;5034429;28;20244;-75
2023/12/17 08:05:58;;;;;;;15.40;10.90;;;8.20;99.90;;;;;;5034339;28;20227;-75
2023/12/17 08:08:26;;;;;;;15.07;11.00;;;8.20;99.90;;;;;;5027751;28;20538;-75
2023/12/17 08:10:54;;;;;;;13.70;10.33;;;8.20;99.90;;;;;;5039197;28;20199;-75
2023/12/17 08:13:21;;;;;;;13.67;9.50;;;8.10;99.90;;;;;;5029196;28;20612;-75
2023/12/17 08:15:49;;;;;;;13.47;10.23;;;8.20;99.90;;;;;;5029008;28;20548;-75
2023/12/17 08:18:16;;;;;;;12.73;9.50;;;8.20;99.90;;;;;;5030557;28;20657;-75
2023/12/17 08:20:44;;;;;;;13.83;10.03;;;8.10;99.90;;;;;;5040944;28;20563;-76
2023/12/17 08:23:13;;;;;;;14.27;11.07;;;8.10;99.90;;;;;;5041053;28;20218;-75
2023/12/17 08:25:40;;;;;;;14.07;9.87;;;8.20;99.90;;;;;;5033506;28;20222;-76
2023/12/17 08:28:07;;;;;;;14.57;9.27;;;8.10;99.90;;;;;;5030564;28;20234;-75
2023/12/17 08:30:38;;;;;;;12.27;8.80;;;8.10;99.90;;;;;;5039688;28;20221;-75
2023/12/17 08:33:05;;;;;;;13.00;8.27;;;8.10;99.90;;;;;;5049721;28;20218;-75
2023/12/17 08:35:36;;;;;;;11.40;8.73;;;8.10;99.90;;;;;;5042988;28;20643;-75
2023/12/17 08:38:05;;;;;;;11.83;8.43;;;8.10;99.90;;;;;;5050895;28;20210;-75
2023/12/17 08:40:37;;;;;;;11.03;7.83;;;8.10;99.90;;;;;;5033421;28;20211;-75
2023/12/17 08:43:06;;;;;;;11.70;7.40;;;8.10;99.90;;;;;;5043827;28;20720;-75
2023/12/17 08:45:33;;;;;;;9.70;6.83;;;7.90;99.90;;;;;;5042563;28;20222;-75
2023/12/17 08:48:01;;;;;;;11.07;7.70;;;8.00;99.90;;;;;;5029977;28;20198;-75
2023/12/17 08:50:28;;;;;;;12.97;6.50;;;8.00;99.90;;;;;;5026395;28;20211;-75
2023/12/17 08:52:56;;;;;;;9.17;6.17;;;7.90;99.90;;;;;;5017188;28;20231;-77
2023/12/17 08:55:24;;;;;;;7.80;6.10;;;7.90;99.90;;;;;;5035420;28;20656;-74
2023/12/17 08:57:53;;;;;;;8.03;6.00;;;7.90;99.90;;;;;;5034974;28;20199;-74
2023/12/17 09:00:21;;;;;;;6.80;5.10;;;7.90;99.90;;;;;;5033376;28;20206;-74
2023/12/17 09:02:48;;;;;;;6.07;4.53;;;7.90;99.90;;;;;;5043251;28;20252;-74
2023/12/17 09:05:16;;;;;;;5.33;4.53;;;7.80;99.90;;;;;;5033268;28;20219;-75
2023/12/17 09:07:43;;;;;;;5.50;4.40;;;7.80;99.90;;;;;;5033548;28;20213;-75
2023/12/17 09:10:10;;;;;;;4.67;3.50;;;7.80;99.90;;;;;;5031284;28;20202;-75
2023/12/17 09:12:38;;;;;;;4.27;3.60;;;7.80;99.90;;;;;;5031954;28;20553;-75
2023/12/17 09:15:08;;;;;;;4.23;3.13;;;7.70;99.90;;;;;;5053480;28;20186;-75
2023/12/17 09:17:36;;;;;;;6.90;4.30;;;7.60;99.90;;;;;;5053467;28;20567;-75
2023/12/17 09:20:03;;;;;;;5.83;4.17;;;7.60;99.90;;;;;;5034783;28;20294;-75
2023/12/17 09:22:31;;;;;;;6.80;4.83;;;7.70;99.90;;;;;;5032905;28;20222;-74
2023/12/17 09:24:59;;;;;;;5.23;4.40;;;7.70;99.90;;;;;;5032657;28;20203;-75
2023/12/17 09:27:53;;;;;;;5.33;4.33;;;7.70;99.90;;;;;;5032846;28;20199;-75
2023/12/17 09:30:22;;;;;;;6.93;4.43;;;7.70;99.90;;;;;;5028926;28;20202;-74
2023/12/17 09:32:50;;;;;;;5.50;4.30;;;7.70;99.90;;;;;;5029137;28;20225;-75
2023/12/17 09:35:19;;;;;;;6.40;4.83;;;7.70;99.90;;;;;;5030348;28;20202;-75
2023/12/17 09:37:47;;;;;;;5.90;4.90;;;7.70;99.90;;;;;;5030391;28;20199;-75
2023/12/17 09:40:16;;;;;;;9.17;6.03;;;7.70;99.90;;;;;;5032701;28;20215;-75
2023/12/17 09:42:44;;;;;;;8.20;6.43;;;7.60;99.90;;;;;;5028486;28;20214;-74
2023/12/17 09:45:14;;;;;;;8.90;6.63;;;7.60;99.90;;;;;;5027449;28;20656;-74
2023/12/17 09:47:54;;;;;;;10.13;6.57;;;7.60;99.90;;;;;;5042115;28;20203;-75
2023/12/17 09:50:24;;;;;;;9.90;7.43;;;7.60;99.90;;;;;;5032470;28;20202;-74
2023/12/17 09:52:51;;;;;;;12.63;8.47;;;7.60;99.90;;;;;;5031517;28;20220;-74
2023/12/17 09:55:19;;;;;;;13.57;7.97;;;7.60;99.90;;;;;;5042676;28;20191;-74
2023/12/17 09:57:47;;;;;;;13.47;8.63;;;7.60;99.90;;;;;;5041372;28;20200;-74
2023/12/17 10:00:15;;;;;;;13.83;9.30;;;7.50;99.90;;;;;;5036797;28;20212;-75
2023/12/17 10:02:43;;;;;;;15.17;9.50;;;7.60;99.90;;;;;;5026628;28;20229;-75
2023/12/17 10:05:11;;;;;;;13.90;8.77;;;7.50;99.90;;;;;;5040567;28;20201;-75
2023/12/17 10:07:39;;;;;;;13.23;8.33;;;7.60;99.90;;;;;;5040272;28;20206;-74
2023/12/17 10:10:07;;;;;;;12.93;9.07;;;7.60;99.90;;;;;;5037119;28;20202;-75
2023/12/17 10:12:35;;;;;;;13.53;8.53;;;7.70;99.90;;;;;;5032744;28;20230;-74
2023/12/17 10:15:03;;;;;;;15.60;9.03;;;7.70;99.90;;;;;;5023618;28;20200;-75
2023/12/17 10:17:30;;;;;;;13.47;9.00;;;7.60;99.90;;;;;;5024212;28;20198;-74
2023/12/17 10:19:58;;;;;;;14.80;9.97;;;7.70;99.90;;;;;;5025799;28;20195;-74
2023/12/17 10:22:26;;;;;;;15.97;10.13;;;7.70;99.90;;;;;;5033407;28;20226;-75
2023/12/17 10:24:55;;;;;;;16.93;9.43;;;7.80;99.90;;;;;;5031579;28;20199;-74
2023/12/17 10:27:23;;;;;;;15.83;10.40;;;7.70;99.90;;;;;;5038587;28;20225;-74
2023/12/17 10:29:52;;;;;;;15.73;10.73;;;7.70;99.90;;;;;;5035635;28;20530;-73
2023/12/17 10:32:22;;;;;;;17.33;10.47;;;7.70;99.90;;;;;;5029474;28;20226;-75
2023/12/17 10:34:51;;;;;;;15.80;10.57;;;7.70;99.90;;;;;;5016364;28;20681;-74
2023/12/17 10:37:20;;;;;;;18.33;11.47;;;7.80;99.90;;;;;;5041279;28;20209;-74
2023/12/17 10:39:50;;;;;;;16.47;10.10;;;7.80;99.90;;;;;;5043390;28;20710;-74
2023/12/17 10:42:19;;;;;;;14.30;9.73;;;7.80;99.90;;;;;;5029348;28;20222;-74
2023/12/17 10:44:48;;;;;;;16.60;10.60;;;7.80;99.90;;;;;;5030381;28;20210;-74
2023/12/17 10:47:19;;;;;;;15.80;9.97;;;7.90;99.90;;;;;;5031228;28;20577;-74
2023/12/17 10:49:47;;;;;;;15.80;9.73;;;7.80;99.90;;;;;;5043508;28;20202;-74
2023/12/17 10:52:16;;;;;;;13.87;8.87;;;7.90;99.90;;;;;;5029846;28;20230;-74
2023/12/17 10:54:43;;;;;;;18.27;10.90;;;7.80;99.90;;;;;;5020755;28;20220;-74
2023/12/17 10:57:14;;;;;;;16.10;10.37;;;7.80;99.90;;;;;;5040964;28;20206;-74
2023/12/17 10:59:45;;;;;;;15.93;9.63;;;7.80;99.90;;;;;;5036096;28;20193;-74
2023/12/17 11:02:15;;;;;;;18.27;11.27;;;7.90;99.90;;;;;;5032872;28;20241;-75
2023/12/17 11:04:45;;;;;;;16.67;10.57;;;7.90;99.90;;;;;;5038482;28;20197;-75
2023/12/17 11:07:17;;;;;;;17.73;11.90;;;7.90;99.90;;;;;;5027052;28;20215;-75
2023/12/17 11:09:45;;;;;;;18.87;12.00;;;8.00;99.90;;;;;;5042455;28;20190;-74
2023/12/17 11:12:17;;;;;;;17.77;11.37;;;7.90;99.90;;;;;;5026996;28;20215;-74
2023/12/17 11:14:44;;;;;;;19.87;11.87;;;7.90;99.90;;;;;;5028773;28;20198;-75
2023/12/17 11:17:12;;;;;;;21.30;12.67;;;7.90;99.90;;;;;;5016838;28;20198;-75
2023/12/17 11:20:02;;;;;;;19.10;12.83;;;7.90;99.90;;;;;;5048050;28;20201;-75
2023/12/17 11:22:29;;;;;;;23.07;13.27;;;8.00;99.90;;;;;;5034183;28;20210;-75
2023/12/17 11:24:58;;;;;;;21.40;13.83;;;8.00;99.90;;;;;;5041467;28;20560;-74
2023/12/17 11:27:27;;;;;;;19.30;13.37;;;8.00;99.90;;;;;;5030118;28;20708;-75
2023/12/17 11:29:56;;;;;;;19.93;13.43;;;8.00;99.90;;;;;;5023982;28;20199;-76
2023/12/17 11:32:26;;;;;;;19.00;12.27;;;7.90;99.90;;;;;;5029493;28;20226;-76
2023/12/17 11:34:56;;;;;;;17.03;12.37;;;8.00;99.90;;;;;;5032516;28;20655;-75
2023/12/17 11:37:24;;;;;;;22.97;12.63;;;8.10;99.90;;;;;;5023018;28;20195;-75
2023/12/17 11:39:53;;;;;;;19.37;12.37;;;8.10;99.90;;;;;;5038901;28;20623;-75
2023/12/17 11:42:22;;;;;;;17.80;12.83;;;8.10;99.90;;;;;;5033180;28;20218;-75
2023/12/17 11:44:52;;;;;;;18.27;13.13;;;8.10;99.90;;;;;;5030176;28;20213;-74
2023/12/17 11:47:27;;;;;;;18.03;11.77;;;8.20;99.90;;;;;;5038361;28;20207;-75
2023/12/17 11:49:59;;;;;;;16.17;11.33;;;8.20;99.90;;;;;;5027819;28;20786;-77
2023/12/17 11:52:43;;;;;;;16.27;12.00;;;8.10;99.90;;;;;;5021124;28;20228;-75
2023/12/17 11:55:10;;;;;;;16.97;12.20;;;8.20;99.90;;;;;;5017904;28;20207;-75
2023/12/17 11:57:38;;;;;;;21.47;11.57;;;8.20;99.90;;;;;;5031729;28;20190;-75
2023/12/17 12:00:13;;;;;;;19.13;12.80;;;8.20;99.90;;;;;;5037972;28;20206;-76
2023/12/17 12:02:41;;;;;;;16.80;11.30;;;8.10;99.90;;;;;;5045640;28;20237;-76
2023/12/17 12:05:09;;;;;;;17.33;12.27;;;8.10;99.90;;;;;;5032738;28;20210;-74
2023/12/17 12:07:36;;;;;;;17.40;12.73;;;8.10;99.90;;;;;;5018075;28;20222;-75
2023/12/17 12:10:08;;;;;;;20.63;13.10;;;8.10;99.90;;;;;;5017825;28;20674;-77
2023/12/17 12:12:35;;;;;;;19.43;14.37;;;8.10;99.90;;;;;;5002309;28;20215;-75
2023/12/17 12:15:03;;;;;;;19.03;13.23;;;8.10;99.90;;;;;;5032102;28;20195;-74
2023/12/17 12:17:39;;;;;;;19.93;13.77;;;8.10;99.90;;;;;;5039063;28;20198;-74
2023/12/17 12:20:08;;;;;;;22.73;14.13;;;8.10;99.90;;;;;;5024489;28;20202;-75
2023/12/17 12:22:36;;;;;;;21.63;14.30;;;8.10;99.90;;;;;;5021520;28;20223;-75
2023/12/17 12:25:04;;;;;;;21.60;13.53;;;8.10;99.90;;;;;;5024806;28;20213;-76
2023/12/17 12:27:32;;;;;;;20.37;15.07;;;8.10;99.90;;;;;;5029957;28;20210;-75
2023/12/17 12:30:00;;;;;;;18.47;12.80;;;8.10;99.90;;;;;;5020238;28;20660;-77
2023/12/17 12:32:28;;;;;;;18.73;14.07;;;8.20;99.90;;;;;;5019521;28;20223;-75
2023/12/17 12:34:57;;;;;;;19.73;12.50;;;8.20;99.90;;;;;;5022906;28;20206;-75
2023/12/17 12:37:36;;;;;;;20.60;14.10;;;8.20;99.90;;;;;;5046133;28;20190;-75
2023/12/17 12:40:04;;;;;;;18.63;14.00;;;8.20;99.90;;;;;;5030716;28;20201;-75
2023/12/17 12:42:32;;;;;;;19.30;14.63;;;8.20;99.90;;;;;;5039198;28;20223;-75
2023/12/17 12:45:00;;;;;;;17.33;12.67;;;8.10;99.90;;;;;;5045501;28;20194;-75
2023/12/17 12:47:28;;;;;;;16.80;13.23;;;8.10;99.90;;;;;;5053728;28;20687;-75
2023/12/17 12:49:57;;;;;;;18.27;13.03;;;8.10;99.90;;;;;;4997723;28;20207;-75
2023/12/17 12:52:35;;;;;;;17.43;12.17;;;8.10;99.90;;;;;;5026929;28;20222;-74